Time;durP1;ratioP1;P1;durP2;ratioP2;P2;SDS_P1;SDS_P2;PMS_P1;PMS_P2;Temp;Humidity;BMP_temperature;BMP_pressure;BME280_temperature;BME280_humidity;BME280_pressure;Samples;Min_cycle;Max_cycle;Signal;HPM_P1;HPM_P2
2022/10/18 00:00:50;;;;;;;4.50;2.25;;;;;;;19.84;61.47;102468.63;5062390;28;20067;-64
2022/10/18 00:03:15;;;;;;;4.38;2.30;;;;;;;19.85;61.67;102459.75;5062224;28;20036;-66
2022/10/18 00:05:40;;;;;;;3.72;2.20;;;;;;;19.89;61.62;102463.88;5062133;28;20036;-64
2022/10/18 00:08:05;;;;;;;5.20;2.20;;;;;;;19.77;61.55;102442.63;5062267;28;20081;-65
2022/10/18 00:10:31;;;;;;;5.73;2.20;;;;;;;19.82;61.40;102445.84;5061143;28;20670;-65
2022/10/18 00:12:56;;;;;;;3.80;1.98;;;;;;;19.75;61.58;102440.91;5062154;28;20321;-66
2022/10/18 00:15:21;;;;;;;5.05;2.30;;;;;;;19.83;61.34;102450.19;5062091;28;20032;-65
2022/10/18 00:17:47;;;;;;;5.40;2.13;;;;;;;19.83;61.56;102458.13;5061963;28;20059;-66
2022/10/18 00:20:12;;;;;;;4.50;1.90;;;;;;;19.81;61.57;102455.56;5061819;28;20062;-66
2022/10/18 00:22:39;;;;;;;3.80;2.17;;;;;;;19.81;61.76;102455.56;5061894;28;20032;-65
2022/10/18 00:25:06;;;;;;;3.42;2.00;;;;;;;19.80;61.61;102450.38;5061761;28;20028;-66
2022/10/18 00:27:32;;;;;;;4.20;2.55;;;;;;;19.85;61.74;102469.44;5061888;28;20039;-64
2022/10/18 00:29:57;;;;;;;5.75;2.15;;;;;;;19.85;61.85;102461.50;5062020;28;20033;-64
2022/10/18 00:32:23;;;;;;;3.60;1.90;;;;;;;19.80;61.61;102455.69;5061634;28;20041;-66
2022/10/18 00:34:48;;;;;;;3.17;1.95;;;;;;;19.86;61.81;102460.59;5061996;28;20074;-64
2022/10/18 00:37:14;;;;;;;3.63;2.13;;;;;;;19.87;61.51;102462.28;5061300;28;20032;-65
2022/10/18 00:39:39;;;;;;;4.05;2.10;;;;;;;19.78;61.62;102455.78;5060258;28;20029;-67
2022/10/18 00:42:04;;;;;;;4.35;2.47;;;;;;;19.85;61.60;102462.38;5061530;28;20049;-65
2022/10/18 00:44:29;;;;;;;6.35;2.53;;;;;;;19.84;61.81;102465.97;5061700;28;20032;-66
2022/10/18 00:47:00;;;;;;;5.70;2.40;;;;;;;19.77;61.37;102454.06;5061577;28;20047;-64
2022/10/18 00:49:46;;;;;;;5.40;2.40;;;;;;;19.76;61.48;102460.31;5059682;28;20379;-64
2022/10/18 00:52:17;;;;;;;3.08;1.88;;;;;;;19.78;61.38;102454.94;5061226;28;20694;-65
2022/10/18 00:54:45;;;;;;;4.63;1.95;;;;;;;19.84;61.56;102470.41;5061682;28;20062;-64
2022/10/18 00:57:12;;;;;;;4.32;2.10;;;;;;;19.85;61.32;102472.09;5061008;28;20028;-65
2022/10/18 00:59:38;;;;;;;4.90;1.95;;;;;;;19.79;61.66;102472.47;5061293;28;20464;-67
2022/10/18 01:02:04;;;;;;;4.90;2.30;;;;;;;19.78;61.75;102468.16;5061127;28;20035;-67
2022/10/18 01:04:29;;;;;;;3.90;2.00;;;;;;;19.75;61.53;102469.16;5061231;28;20044;-65
2022/10/18 01:07:20;;;;;;;5.07;2.00;;;;;;;19.82;61.48;102485.53;5060973;28;20036;-65
2022/10/18 01:09:51;;;;;;;5.53;1.85;;;;;;;19.82;61.66;102483.75;5061443;28;20418;-65
2022/10/18 01:12:46;;;;;;;4.22;2.20;;;;;;;19.80;61.66;102488.25;5061068;28;20472;-65
2022/10/18 01:15:32;;;;;;;4.15;1.92;;;;;;;19.80;61.44;102485.63;5061110;28;20041;-65
2022/10/18 01:18:27;;;;;;;4.00;2.05;;;;;;;19.75;61.51;102480.56;5061047;28;20090;-64
2022/10/18 01:21:02;;;;;;;6.00;2.35;;;;;;;19.80;61.70;102487.41;5058157;28;20090;-66
2022/10/18 01:23:48;;;;;;;4.05;2.15;;;;;;;19.72;61.63;102469.34;5061041;28;20368;-65
2022/10/18 01:26:38;;;;;;;3.95;2.15;;;;;;;19.79;61.58;102483.06;5060766;28;20032;-65
2022/10/18 01:29:41;;;;;;;5.38;2.10;;;;;;;19.79;61.60;102477.78;5060661;28;20372;-65
2022/10/18 01:32:13;;;;;;;5.55;1.92;;;;;;;19.78;61.30;102479.56;5060768;28;20036;-66
2022/10/18 01:34:42;;;;;;;5.05;2.00;;;;;;;19.78;61.74;102487.50;5061085;28;20465;-65
2022/10/18 01:37:13;;;;;;;3.92;2.08;;;;;;;19.70;61.76;102474.72;5061075;28;20047;-66
2022/10/18 01:39:43;;;;;;;4.05;2.10;;;;;;;19.72;61.80;102486.06;5061036;28;20713;-65
2022/10/18 01:42:11;;;;;;;4.18;2.17;;;;;;;19.71;61.31;102473.78;5060606;28;20052;-67
2022/10/18 01:44:38;;;;;;;3.45;1.80;;;;;;;19.74;61.43;102486.84;5060627;28;21299;-66
2022/10/18 01:47:08;;;;;;;4.00;1.95;;;;;;;19.71;61.58;102475.56;5060970;28;20028;-65
2022/10/18 01:49:33;;;;;;;3.65;1.80;;;;;;;19.76;61.44;102486.78;5060956;28;20032;-65
2022/10/18 01:51:58;;;;;;;4.53;1.80;;;;;;;19.75;61.26;102487.66;5060742;28;20040;-64
2022/10/18 01:54:31;;;;;;;3.50;2.00;;;;;;;19.69;61.38;102474.81;5060951;28;20032;-66
2022/10/18 01:57:14;;;;;;;5.03;2.05;;;;;;;19.69;61.56;102474.81;5060754;28;20604;-65
2022/10/18 02:00:01;;;;;;;5.15;2.13;;;;;;;19.75;61.63;102488.50;5060983;28;20380;-65
2022/10/18 02:02:46;;;;;;;3.50;2.00;;;;;;;19.75;61.34;102491.16;5060697;28;20028;-65
2022/10/18 02:05:29;;;;;;;5.47;2.22;;;;;;;19.70;61.60;102477.38;5060901;28;20036;-67
2022/10/18 02:08:29;;;;;;;4.38;2.20;;;;;;;19.74;61.38;102491.25;5060544;28;20028;-65
2022/10/18 02:11:04;;;;;;;4.00;1.98;;;;;;;19.74;61.28;102488.59;5017793;28;20036;-67
2022/10/18 02:13:35;;;;;;;5.00;1.80;;;;;;;19.67;61.42;102482.84;5054396;28;20054;-64
2022/10/18 02:16:06;;;;;;;4.18;1.95;;;;;;;19.74;61.54;102491.25;5060514;28;20047;-65
2022/10/18 02:18:39;;;;;;;3.47;1.83;;;;;;;19.73;61.28;102484.28;5060552;28;20036;-65
2022/10/18 02:21:09;;;;;;;5.25;1.95;;;;;;;19.72;61.34;102480.75;5060437;28;20483;-65
2022/10/18 02:23:36;;;;;;;4.22;2.03;;;;;;;19.73;61.32;102485.13;5060319;28;20464;-64
2022/10/18 02:26:01;;;;;;;3.40;2.00;;;;;;;19.73;61.25;102489.56;5060534;28;20033;-65
2022/10/18 02:28:26;;;;;;;4.22;2.00;;;;;;;19.72;61.55;102494.00;5060284;28;20035;-64
2022/10/18 02:31:02;;;;;;;3.88;1.85;;;;;;;19.64;61.51;102483.03;5060787;28;20029;-64
2022/10/18 02:34:12;;;;;;;4.82;2.58;;;;;;;19.72;61.15;102493.16;5062364;28;20125;-66
2022/10/18 02:36:52;;;;;;;4.15;1.95;;;;;;;19.70;61.27;102493.25;5062683;28;20052;-65
2022/10/18 02:39:21;;;;;;;4.25;2.20;;;;;;;19.70;61.32;102489.75;5064168;28;20098;-64
2022/10/18 02:41:47;;;;;;;3.83;1.80;;;;;;;19.68;61.58;102497.78;5063966;28;20135;-65
2022/10/18 02:44:12;;;;;;;5.05;2.00;;;;;;;19.67;61.44;102498.72;5064126;28;20140;-65
2022/10/18 02:46:38;;;;;;;3.70;2.33;;;;;;;19.64;61.15;102498.06;5063826;28;20098;-65
2022/10/18 02:49:04;;;;;;;4.75;2.20;;;;;;;19.71;61.54;102502.03;5063487;28;20261;-62
2022/10/18 02:51:29;;;;;;;3.72;2.00;;;;;;;19.70;61.14;102501.19;5063332;28;20062;-63
2022/10/18 02:53:55;;;;;;;4.70;2.10;;;;;;;19.64;61.33;102493.63;5063582;28;20452;-65
2022/10/18 02:56:20;;;;;;;4.50;1.85;;;;;;;19.63;61.10;102486.66;5063699;28;20036;-63
2022/10/18 02:58:45;;;;;;;5.23;2.10;;;;;;;19.70;61.07;102495.06;5063802;28;20024;-65
2022/10/18 03:01:11;;;;;;;3.33;1.87;;;;;;;19.64;61.39;102487.50;5063164;28;20261;-64
2022/10/18 03:03:37;;;;;;;3.92;2.10;;;;;;;19.59;61.25;102485.13;5063571;28;20344;-65
2022/10/18 03:06:02;;;;;;;4.10;1.90;;;;;;;19.69;61.12;102494.22;5061856;28;20789;-65
2022/10/18 03:08:27;;;;;;;3.63;2.08;;;;;;;19.58;60.98;102486.06;5063249;28;20032;-66
2022/10/18 03:10:52;;;;;;;4.05;2.00;;;;;;;19.65;61.12;102495.34;5063558;28;20037;-65
2022/10/18 03:13:18;;;;;;;3.53;1.90;;;;;;;19.61;61.22;102490.31;5063316;28;20337;-67
2022/10/18 03:15:43;;;;;;;4.57;2.45;;;;;;;19.63;61.13;102496.34;5063241;28;20029;-64
2022/10/18 03:18:08;;;;;;;4.65;1.98;;;;;;;19.69;61.15;102498.63;5063196;28;20467;-64
2022/10/18 03:20:34;;;;;;;3.58;2.10;;;;;;;19.60;61.02;102478.03;5062811;28;20461;-65
2022/10/18 03:22:59;;;;;;;3.30;1.90;;;;;;;19.62;61.00;102478.81;5064647;28;20036;-65
2022/10/18 03:25:24;;;;;;;4.43;2.10;;;;;;;19.64;60.84;102496.28;5064342;28;20066;-63
2022/10/18 03:27:49;;;;;;;3.75;1.90;;;;;;;19.66;61.28;102512.03;5064181;28;20751;-65
2022/10/18 03:30:15;;;;;;;3.63;2.00;;;;;;;19.65;61.30;102513.00;5063115;28;20021;-65
2022/10/18 03:32:40;;;;;;;3.88;2.10;;;;;;;19.58;61.59;102501.94;5062822;28;20281;-65
2022/10/18 03:35:08;;;;;;;3.85;1.95;;;;;;;19.67;61.24;102513.75;5062847;28;20475;-64
2022/10/18 03:37:33;;;;;;;3.67;1.90;;;;;;;19.66;61.37;102512.91;5062222;28;20889;-65
2022/10/18 03:39:58;;;;;;;3.90;2.15;;;;;;;19.55;61.02;102492.41;5063030;28;20033;-64
2022/10/18 03:42:23;;;;;;;4.10;2.00;;;;;;;19.63;61.00;102502.53;5062780;28;20060;-64
2022/10/18 03:44:49;;;;;;;3.83;2.13;;;;;;;19.58;60.92;102501.94;5062695;28;20261;-66
2022/10/18 03:47:14;;;;;;;5.68;2.25;;;;;;;19.60;61.10;102494.78;5062431;28;20330;-64
2022/10/18 03:49:39;;;;;;;3.22;2.00;;;;;;;19.57;61.23;102493.16;5062395;28;20033;-65
2022/10/18 03:52:05;;;;;;;3.50;1.90;;;;;;;19.64;61.08;102498.06;5062175;28;20392;-64
2022/10/18 03:54:30;;;;;;;4.75;2.05;;;;;;;19.64;60.87;102498.06;5062210;28;20304;-63
2022/10/18 03:56:55;;;;;;;4.50;2.42;;;;;;;19.60;60.94;102485.97;5062302;28;20396;-64
2022/10/18 03:59:21;;;;;;;4.50;2.28;;;;;;;19.64;61.15;102487.50;5062491;28;20086;-64
2022/10/18 04:01:47;;;;;;;5.20;1.95;;;;;;;19.54;60.82;102476.63;5062177;28;20032;-65
2022/10/18 04:04:12;;;;;;;3.90;2.10;;;;;;;19.63;60.98;102497.22;5062554;28;20024;-64
2022/10/18 04:06:37;;;;;;;3.83;1.90;;;;;;;19.55;61.14;102481.84;5061842;28;20042;-64
2022/10/18 04:09:03;;;;;;;3.30;2.17;;;;;;;19.57;60.88;102493.16;5062233;28;20017;-63
2022/10/18 04:11:28;;;;;;;3.70;1.98;;;;;;;19.57;61.08;102487.03;5062083;28;20356;-64
2022/10/18 04:13:53;;;;;;;4.40;2.10;;;;;;;19.60;60.81;102494.78;5062081;28;20029;-64
2022/10/18 04:16:18;;;;;;;4.67;2.53;;;;;;;19.56;60.92;102480.88;5061961;28;20297;-66
2022/10/18 04:18:44;;;;;;;3.60;2.30;;;;;;;19.55;61.04;102480.97;5062093;28;20269;-65
2022/10/18 04:21:09;;;;;;;4.83;2.23;;;;;;;19.57;60.94;102487.03;5061654;28;20286;-65
2022/10/18 04:23:34;;;;;;;4.32;2.28;;;;;;;19.55;60.91;102488.91;5061974;28;20297;-65
2022/10/18 04:26:00;;;;;;;4.37;2.10;;;;;;;19.60;60.79;102497.41;5062088;28;20016;-67
2022/10/18 04:28:25;;;;;;;3.43;2.03;;;;;;;19.54;60.78;102493.34;5061906;28;20292;-65
2022/10/18 04:30:51;;;;;;;4.57;2.40;;;;;;;19.56;60.62;102498.53;5061856;28;20297;-65
2022/10/18 04:33:17;;;;;;;3.85;2.08;;;;;;;19.53;60.76;102496.91;5061810;28;20025;-64
2022/10/18 04:35:42;;;;;;;4.32;2.65;;;;;;;19.52;60.80;102491.75;5061568;28;20021;-66
2022/10/18 04:38:08;;;;;;;5.93;2.30;;;;;;;19.52;60.74;102494.41;5061625;28;20032;-67
2022/10/18 04:40:33;;;;;;;3.95;2.08;;;;;;;19.55;60.64;102503.00;5061431;28;20032;-64
2022/10/18 04:42:58;;;;;;;5.47;2.33;;;;;;;19.59;60.93;102511.56;5061154;28;20048;-65
2022/10/18 04:45:24;;;;;;;4.10;2.30;;;;;;;19.55;60.85;102504.75;5061552;28;20668;-63
2022/10/18 04:47:49;;;;;;;4.00;2.00;;;;;;;19.54;60.82;102500.44;5061621;28;20269;-65
2022/10/18 04:50:15;;;;;;;3.40;1.77;;;;;;;19.50;60.68;102489.19;5061242;28;20090;-63
2022/10/18 04:52:40;;;;;;;3.95;2.30;;;;;;;19.55;60.72;102503.00;5061218;28;20090;-64
2022/10/18 04:55:05;;;;;;;4.07;2.83;;;;;;;19.53;60.66;102504.84;5061199;28;20032;-64
2022/10/18 04:57:31;;;;;;;3.00;1.95;;;;;;;19.55;60.80;102516.22;5060992;28;20277;-64
2022/10/18 04:59:56;;;;;;;4.75;2.00;;;;;;;19.51;60.41;102511.19;5061296;28;20416;-64
2022/10/18 05:02:21;;;;;;;3.83;2.20;;;;;;;19.48;60.96;102503.44;5061305;28;20125;-64
2022/10/18 05:04:46;;;;;;;3.97;2.40;;;;;;;19.54;60.44;102511.84;5061270;28;20268;-64
2022/10/18 05:07:12;;;;;;;3.20;2.15;;;;;;;19.54;60.86;102505.72;5061211;28;20467;-64
2022/10/18 05:09:37;;;;;;;3.60;2.22;;;;;;;19.50;60.71;102499.78;5060979;28;20146;-66
2022/10/18 05:12:02;;;;;;;4.65;2.50;;;;;;;19.55;60.49;102505.63;5061282;28;20032;-65
2022/10/18 05:14:27;;;;;;;3.78;2.28;;;;;;;19.47;60.48;102499.97;5061189;28;20053;-65
2022/10/18 05:16:53;;;;;;;4.10;2.30;;;;;;;19.49;60.44;102507.81;5061145;28;20078;-65
2022/10/18 05:19:18;;;;;;;4.63;2.15;;;;;;;19.54;60.55;102516.31;5059374;28;20272;-66
2022/10/18 05:21:43;;;;;;;3.92;2.22;;;;;;;19.49;60.69;102516.56;5061370;28;20424;-64
2022/10/18 05:24:10;;;;;;;5.35;2.30;;;;;;;19.51;60.46;102513.84;5060972;28;20464;-64
2022/10/18 05:26:35;;;;;;;3.80;2.35;;;;;;;19.51;60.71;102519.97;5060792;28;20028;-67
2022/10/18 05:29:02;;;;;;;4.43;2.30;;;;;;;19.32;60.43;102488.50;5061057;28;20024;-65
2022/10/18 05:31:27;;;;;;;4.47;2.00;;;;;;;19.24;60.46;102476.72;5061056;28;20387;-64
2022/10/18 05:33:52;;;;;;;3.80;2.13;;;;;;;19.52;60.46;102521.69;5061063;28;20053;-66
2022/10/18 05:36:18;;;;;;;3.90;2.17;;;;;;;19.46;60.32;102516.75;5060786;28;20259;-64
2022/10/18 05:38:44;;;;;;;4.03;2.33;;;;;;;19.53;60.43;102528.66;5060942;28;20280;-64
2022/10/18 05:41:10;;;;;;;3.95;2.15;;;;;;;19.49;60.74;102521.03;5060997;28;20119;-63
2022/10/18 05:43:35;;;;;;;4.45;2.40;;;;;;;19.49;60.37;102519.22;5061021;28;20503;-64
2022/10/18 05:46:01;;;;;;;4.93;2.70;;;;;;;19.50;60.46;102517.41;5060858;28;20032;-64
2022/10/18 05:48:26;;;;;;;4.15;2.30;;;;;;;19.53;59.90;102520.72;5060302;28;20360;-66
2022/10/18 05:50:51;;;;;;;5.10;2.50;;;;;;;19.56;60.16;102519.69;5060900;28;20043;-63
2022/10/18 05:53:17;;;;;;;3.88;2.22;;;;;;;19.55;60.24;102524.16;5059153;28;20599;-64
2022/10/18 05:55:42;;;;;;;3.85;2.50;;;;;;;19.56;60.09;102531.13;5060991;28;20040;-63
2022/10/18 05:58:07;;;;;;;5.13;2.60;;;;;;;19.57;60.06;102540.75;5060785;28;20097;-68
2022/10/18 06:00:33;;;;;;;7.03;2.85;;;;;;;19.50;60.39;102530.63;5061160;28;20393;-63
2022/10/18 06:03:00;;;;;;;3.85;2.45;;;;;;;19.48;60.69;102525.44;5060611;28;20465;-63
2022/10/18 06:05:25;;;;;;;4.30;2.20;;;;;;;19.55;60.67;102536.50;5060849;28;20048;-65
2022/10/18 06:07:51;;;;;;;6.93;2.35;;;;;;;19.51;60.82;102538.47;5061316;28;20055;-63
2022/10/18 06:10:16;;;;;;;5.75;2.80;;;;;;;19.59;61.11;102551.25;5064539;28;20075;-61
2022/10/18 06:12:41;;;;;;;6.32;2.28;;;;;;;19.60;60.80;102552.09;5064452;28;20035;-63
2022/10/18 06:15:07;;;;;;;4.40;2.43;;;;;;;19.59;60.78;102551.25;5064619;28;20044;-63
2022/10/18 06:17:32;;;;;;;4.57;2.58;;;;;;;19.60;60.88;102549.44;5064142;28;20257;-64
2022/10/18 06:19:57;;;;;;;4.68;2.47;;;;;;;19.57;60.80;102537.28;5064475;28;20036;-64
2022/10/18 06:22:22;;;;;;;4.10;2.27;;;;;;;19.63;60.88;102546.63;5064314;28;20047;-63
2022/10/18 06:24:48;;;;;;;5.00;2.50;;;;;;;19.57;61.04;102547.84;5064359;28;20257;-64
2022/10/18 06:27:13;;;;;;;5.03;2.40;;;;;;;19.62;60.85;102561.63;5064391;28;20949;-64
2022/10/18 06:29:39;;;;;;;4.75;2.50;;;;;;;19.64;60.72;102561.53;5063798;28;20431;-64
2022/10/18 06:32:06;;;;;;;6.30;3.17;;;;;;;19.58;60.70;102555.69;5064051;28;20039;-63
2022/10/18 06:34:32;;;;;;;4.40;2.58;;;;;;;19.56;60.97;102549.63;5063907;28;20050;-63
2022/10/18 06:36:57;;;;;;;4.60;2.60;;;;;;;19.58;60.69;102553.06;5063935;28;20107;-63
2022/10/18 06:39:23;;;;;;;6.25;2.92;;;;;;;19.57;60.77;102564.56;5063574;28;20066;-63
2022/10/18 06:41:48;;;;;;;5.57;2.63;;;;;;;19.53;60.73;102555.09;5063824;28;20035;-63
2022/10/18 06:44:13;;;;;;;4.03;2.45;;;;;;;19.67;60.76;102577.22;5064273;28;20029;-63
2022/10/18 06:46:40;;;;;;;4.93;2.72;;;;;;;19.58;60.77;102558.34;5063848;28;20358;-67
2022/10/18 06:49:05;;;;;;;3.80;2.33;;;;;;;19.61;60.88;102559.09;5063597;28;20025;-63
2022/10/18 06:51:30;;;;;;;4.90;2.78;;;;;;;19.61;60.65;102562.56;5063916;28;20036;-64
2022/10/18 06:53:56;;;;;;;5.87;3.00;;;;;;;19.63;60.67;102565.13;5063591;28;20123;-62
2022/10/18 06:56:21;;;;;;;5.37;2.93;;;;;;;19.63;60.77;102573.94;5063658;28;20261;-63
2022/10/18 06:58:46;;;;;;;5.13;2.67;;;;;;;19.63;61.12;102581.88;5063355;28;20602;-63
2022/10/18 07:01:17;;;;;;;9.37;2.90;;;;;;;19.69;60.83;102599.16;5062612;28;20079;-67
2022/10/18 07:03:44;;;;;;;7.28;2.70;;;;;;;19.66;61.12;102608.13;5062818;28;20338;-68
2022/10/18 07:06:12;;;;;;;7.53;2.80;;;;;;;19.57;61.37;102591.00;5063185;28;20062;-69
2022/10/18 07:08:37;;;;;;;4.25;2.70;;;;;;;19.63;61.49;102600.38;5062394;28;20496;-70
2022/10/18 07:11:04;;;;;;;5.72;3.00;;;;;;;19.70;61.16;102612.28;5063026;28;20040;-72
2022/10/18 07:13:31;;;;;;;4.57;2.85;;;;;;;19.73;61.34;102612.09;5062740;28;20512;-71
2022/10/18 07:16:22;;;;;;;4.93;2.95;;;;;;;19.79;61.38;102626.78;5061751;28;20029;-71
2022/10/18 07:18:50;;;;;;;6.78;2.75;;;;;;;19.82;61.32;102623.97;5060988;28;20051;-67
2022/10/18 07:21:17;;;;;;;5.53;2.70;;;;;;;19.78;60.75;102603.91;5062754;28;20024;-68
2022/10/18 07:23:47;;;;;;;5.32;2.63;;;;;;;19.83;60.89;102622.16;5063022;28;20411;-73
2022/10/18 07:26:25;;;;;;;5.80;3.22;;;;;;;19.80;60.52;102617.88;5062347;28;20460;-69
2022/10/18 07:28:54;;;;;;;4.40;2.80;;;;;;;19.83;60.63;102623.00;5062655;28;20173;-71
2022/10/18 07:31:21;;;;;;;4.32;2.63;;;;;;;19.91;60.46;102633.13;5062627;28;20089;-72
2022/10/18 07:33:46;;;;;;;5.13;2.97;;;;;;;19.90;60.37;102636.69;5063921;28;20036;-71
2022/10/18 07:36:12;;;;;;;5.75;2.65;;;;;;;19.92;60.64;102635.66;5064647;28;20039;-71
2022/10/18 07:38:38;;;;;;;4.55;2.53;;;;;;;19.90;60.30;102637.56;5062356;28;20036;-69
2022/10/18 07:41:05;;;;;;;4.40;2.85;;;;;;;19.96;60.20;102654.84;5062235;28;20150;-60
2022/10/18 07:43:31;;;;;;;7.13;3.00;;;;;;;19.87;60.72;102653.63;5062430;28;20063;-63
2022/10/18 07:45:59;;;;;;;5.50;2.90;;;;;;;19.93;60.39;102660.31;5062554;28;20032;-63
2022/10/18 07:48:25;;;;;;;5.93;2.58;;;;;;;19.90;60.43;102657.88;5061143;28;20109;-63
2022/10/18 07:50:50;;;;;;;5.07;2.65;;;;;;;19.84;60.36;102659.09;5062550;28;20036;-64
2022/10/18 07:53:16;;;;;;;4.25;2.78;;;;;;;19.89;60.25;102672.91;5062458;28;20025;-63
2022/10/18 07:55:42;;;;;;;9.68;4.03;;;;;;;19.83;60.65;102672.41;5062697;28;20453;-64
2022/10/18 07:58:07;;;;;;;5.05;2.72;;;;;;;19.83;60.72;102677.72;5062215;28;20039;-63
2022/10/18 08:00:32;;;;;;;5.78;2.78;;;;;;;19.79;60.21;102678.81;5062211;28;20433;-63
2022/10/18 08:02:58;;;;;;;4.45;2.80;;;;;;;19.67;60.46;102670.66;5062285;28;20134;-64
2022/10/18 08:05:26;;;;;;;4.38;2.42;;;;;;;19.80;60.29;102689.31;5062360;28;20093;-63
2022/10/18 08:07:52;;;;;;;4.03;2.45;;;;;;;19.81;60.35;102693.69;5062325;28;20040;-63
2022/10/18 08:10:18;;;;;;;5.13;2.58;;;;;;;19.65;60.67;102675.19;5062142;28;20028;-63
2022/10/18 08:12:43;;;;;;;6.30;2.67;;;;;;;19.81;60.30;102703.41;5060372;28;20032;-63
2022/10/18 08:15:09;;;;;;;5.13;3.38;;;;;;;19.79;60.38;102716.75;5061437;28;20090;-63
2022/10/18 08:17:34;;;;;;;4.70;3.05;;;;;;;19.73;60.77;102709.97;5061975;28;20035;-64
2022/10/18 08:20:00;;;;;;;4.83;2.43;;;;;;;19.55;60.35;102676.66;5062082;28;20123;-63
2022/10/18 08:22:25;;;;;;;4.60;2.60;;;;;;;19.79;60.58;102707.94;5061883;28;20316;-66
2022/10/18 08:24:50;;;;;;;4.60;2.70;;;;;;;19.77;60.59;102705.38;5061962;28;20116;-62
2022/10/18 08:27:15;;;;;;;4.68;2.28;;;;;;;19.80;60.33;102714.94;5061836;28;20257;-63
2022/10/18 08:29:41;;;;;;;5.68;2.78;;;;;;;19.76;60.44;102719.56;5061545;28;20040;-63
2022/10/18 08:32:06;;;;;;;4.93;2.63;;;;;;;19.74;60.51;102711.69;5061103;28;20032;-65
2022/10/18 08:34:33;;;;;;;4.78;2.58;;;;;;;19.74;60.56;102719.63;5061633;28;20028;-64
2022/10/18 08:36:58;;;;;;;4.75;2.70;;;;;;;19.82;60.05;102732.44;5061790;28;20040;-62
2022/10/18 08:39:23;;;;;;;4.93;2.88;;;;;;;19.82;60.10;102731.56;5061761;28;20039;-64
2022/10/18 08:41:56;;;;;;;4.20;2.67;;;;;;;19.81;60.12;102737.81;5061224;28;20067;-63
2022/10/18 08:44:25;;;;;;;6.47;2.60;;;;;;;19.79;60.13;102732.63;5061807;28;20040;-63
2022/10/18 08:46:57;;;;;;;3.90;2.60;;;;;;;19.78;60.32;102722.97;5061256;28;20032;-63
2022/10/18 08:49:45;;;;;;;4.65;2.55;;;;;;;19.82;60.45;102736.84;5061272;28;20029;-63
2022/10/18 08:52:34;;;;;;;5.55;2.90;;;;;;;19.77;60.20;102726.53;5061364;28;20571;-64
2022/10/18 08:55:08;;;;;;;5.65;2.50;;;;;;;19.74;60.17;102729.31;5061913;28;20036;-63
2022/10/18 08:57:34;;;;;;;4.85;2.50;;;;;;;19.78;60.42;102736.19;5061699;28;20050;-64
2022/10/18 09:00:04;;;;;;;4.97;2.65;;;;;;;19.76;60.22;102732.78;5061249;28;20040;-62
2022/10/18 09:02:59;;;;;;;5.05;2.50;;;;;;;19.80;60.31;102738.75;5061741;28;20036;-63
2022/10/18 09:05:49;;;;;;;5.68;2.70;;;;;;;19.82;60.02;102747.44;5061074;28;20024;-65
2022/10/18 09:08:45;;;;;;;3.90;2.33;;;;;;;19.77;59.77;102737.13;5061174;28;20119;-63
2022/10/18 09:11:39;;;;;;;4.03;2.40;;;;;;;19.77;59.83;102728.34;5061033;28;20052;-63
2022/10/18 09:14:29;;;;;;;4.78;2.50;;;;;;;19.82;59.92;102736.84;5042001;28;20039;-62
2022/10/18 09:17:12;;;;;;;5.63;2.80;;;;;;;19.82;59.99;102743.03;5060920;28;20028;-65
2022/10/18 09:19:54;;;;;;;5.40;2.50;;;;;;;19.76;60.14;102735.44;5061051;28;20039;-64
2022/10/18 09:22:29;;;;;;;4.32;2.50;;;;;;;19.74;59.88;102735.50;5061022;28;20036;-63
2022/10/18 09:25:12;;;;;;;4.25;2.55;;;;;;;19.73;60.00;102733.78;5061231;28;20655;-63
2022/10/18 09:27:48;;;;;;;4.90;2.50;;;;;;;19.74;59.83;102729.31;5061246;28;20036;-65
2022/10/18 09:30:16;;;;;;;5.93;2.63;;;;;;;19.81;60.02;102741.31;5060762;28;20522;-61
2022/10/18 09:33:14;;;;;;;6.07;2.15;;;;;;;19.78;59.85;102741.47;5060701;28;20033;-64
2022/10/18 09:35:59;;;;;;;5.25;2.47;;;;;;;19.80;59.88;102742.22;5061268;28;20075;-63
2022/10/18 09:38:29;;;;;;;5.32;2.58;;;;;;;19.82;60.03;102742.16;5060458;28;20484;-63
2022/10/18 09:41:12;;;;;;;5.03;2.30;;;;;;;19.82;59.72;102747.44;5060836;28;20033;-63
2022/10/18 09:44:12;;;;;;;5.40;2.60;;;;;;;19.75;59.87;102734.53;5064920;28;20076;-63
2022/10/18 09:46:44;;;;;;;4.65;2.40;;;;;;;19.80;59.66;102739.59;5064953;28;20110;-64
2022/10/18 09:49:20;;;;;;;5.20;2.65;;;;;;;19.83;59.96;102744.69;5064765;28;20024;-62
2022/10/18 09:51:48;;;;;;;5.63;2.50;;;;;;;19.79;59.69;102744.97;5065027;28;20036;-62
2022/10/18 09:54:38;;;;;;;6.70;2.35;;;;;;;19.76;59.86;102748.66;5065021;28;20020;-61
2022/10/18 09:57:11;;;;;;;4.72;2.60;;;;;;;19.78;59.95;102745.94;5064682;28;20131;-62
2022/10/18 09:59:46;;;;;;;5.63;2.30;;;;;;;19.78;59.83;102745.94;5064652;28;20075;-63
2022/10/18 10:02:14;;;;;;;5.45;2.35;;;;;;;19.83;59.70;102746.50;5064622;28;20444;-62
2022/10/18 10:04:39;;;;;;;5.13;2.22;;;;;;;19.78;59.83;102740.63;5064588;28;20403;-61
2022/10/18 10:07:10;;;;;;;3.92;2.00;;;;;;;19.77;59.52;102739.75;5064525;28;20038;-61
2022/10/18 10:09:42;;;;;;;5.25;2.55;;;;;;;19.86;59.56;102749.81;5064059;28;20082;-60
2022/10/18 10:12:25;;;;;;;8.50;2.20;;;;;;;19.83;59.78;102747.34;5064539;28;20086;-60
2022/10/18 10:14:51;;;;;;;6.10;2.30;;;;;;;19.79;59.50;102724.69;5064722;28;20106;-61
2022/10/18 10:17:29;;;;;;;4.15;2.10;;;;;;;19.81;59.82;102729.88;5064387;28;20218;-64
2022/10/18 10:20:02;;;;;;;5.30;2.35;;;;;;;19.86;59.79;102739.22;5064199;28;20035;-62
2022/10/18 10:22:47;;;;;;;5.85;2.30;;;;;;;19.89;59.91;102743.50;5064490;28;20082;-63
2022/10/18 10:25:39;;;;;;;5.18;2.30;;;;;;;19.85;59.92;102734.91;5064161;28;20958;-62
2022/10/18 10:28:20;;;;;;;4.57;1.90;;;;;;;19.89;59.65;102749.63;5062944;28;20502;-62
2022/10/18 10:30:46;;;;;;;5.50;2.22;;;;;;;19.83;59.54;102734.13;5064092;28;20105;-62
2022/10/18 10:34:02;;;;;;;5.68;2.33;;;;;;;19.90;59.73;102742.53;5063864;28;20062;-63
2022/10/18 10:36:30;;;;;;;7.63;2.40;;;;;;;19.89;59.79;102747.00;5041539;28;20033;-62
2022/10/18 10:39:09;;;;;;;6.68;2.20;;;;;;;19.90;59.55;102766.34;5041168;28;20037;-62
2022/10/18 10:41:36;;;;;;;5.47;2.15;;;;;;;19.87;59.75;102764.75;5056428;28;20371;-64
2022/10/18 10:44:12;;;;;;;4.45;2.08;;;;;;;19.91;59.65;102770.72;5063611;28;20052;-62
2022/10/18 10:46:37;;;;;;;6.57;2.00;;;;;;;19.75;59.49;102744.28;5063911;28;20119;-63
2022/10/18 10:49:03;;;;;;;6.13;2.50;;;;;;;19.85;59.68;102760.50;5063749;28;20425;-65
2022/10/18 10:51:29;;;;;;;4.15;1.95;;;;;;;19.91;59.38;102774.19;5063690;28;20067;-61
2022/10/18 10:54:12;;;;;;;5.05;2.03;;;;;;;19.92;59.62;102781.22;5062976;28;20110;-63
2022/10/18 10:57:10;;;;;;;6.68;2.03;;;;;;;19.93;59.62;102776.75;5063520;28;20036;-63
2022/10/18 10:59:45;;;;;;;5.22;2.00;;;;;;;19.87;59.49;102759.47;5059232;28;20032;-62
2022/10/18 11:02:17;;;;;;;8.38;2.13;;;;;;;19.94;59.38;102781.13;5062515;28;20396;-70
2022/10/18 11:04:47;;;;;;;5.20;2.25;;;;;;;19.91;59.77;102782.13;5062034;28;20059;-71
2022/10/18 11:07:19;;;;;;;4.97;1.80;;;;;;;19.92;59.73;102777.72;5063648;28;20036;-68
2022/10/18 11:10:00;;;;;;;6.43;2.30;;;;;;;19.93;59.18;102777.63;5062665;28;20036;-70
2022/10/18 11:12:35;;;;;;;9.00;2.10;;;;;;;20.00;59.57;102785.22;5062975;28;20523;-69
2022/10/18 11:15:10;;;;;;;5.25;2.00;;;;;;;19.98;59.42;102763.25;5062551;28;20476;-68
2022/10/18 11:18:04;;;;;;;6.57;1.80;;;;;;;20.09;59.11;102784.66;5063063;28;20044;-68
2022/10/18 11:20:40;;;;;;;5.80;1.97;;;;;;;20.08;58.78;102775.88;5062221;28;20041;-70
2022/10/18 11:23:14;;;;;;;4.75;1.75;;;;;;;20.13;59.01;102775.59;5062690;28;20029;-70
2022/10/18 11:26:02;;;;;;;5.93;2.53;;;;;;;20.21;58.72;102785.72;5062430;28;20223;-70
2022/10/18 11:28:42;;;;;;;6.38;1.95;;;;;;;20.26;58.63;102781.00;5062300;28;20036;-71
2022/10/18 11:31:28;;;;;;;5.03;1.90;;;;;;;20.24;58.45;102780.25;5062134;28;20036;-72
2022/10/18 11:34:06;;;;;;;4.82;1.88;;;;;;;20.18;58.63;102780.63;5062301;28;20119;-72
2022/10/18 11:36:52;;;;;;;5.75;1.70;;;;;;;20.16;58.35;102764.81;5062328;28;20103;-71
2022/10/18 11:39:35;;;;;;;7.28;1.90;;;;;;;20.28;58.31;102771.16;5061759;28;20036;-68